Time;durP1;ratioP1;P1;durP2;ratioP2;P2;SDS_P1;SDS_P2;PMS_P1;PMS_P2;Temp;Humidity;BMP_temperature;BMP_pressure;BME280_temperature;BME280_humidity;BME280_pressure;Samples;Min_cycle;Max_cycle;Signal;HPM_P1;HPM_P2
2023/07/11 00:00:51;;;;;;;4.63;4.20;;;24.90;58.20;;;;;;4999754;28;20068;-66
2023/07/11 00:03:16;;;;;;;4.88;4.05;;;24.90;58.20;;;;;;5000459;28;20069;-66
2023/07/11 00:05:42;;;;;;;5.45;3.80;;;24.90;58.30;;;;;;5003749;28;20053;-66
2023/07/11 00:08:08;;;;;;;3.70;3.35;;;24.90;58.20;;;;;;4996757;28;20030;-66
2023/07/11 00:10:34;;;;;;;4.95;3.92;;;24.90;58.30;;;;;;4999180;28;20656;-66
2023/07/11 00:13:00;;;;;;;6.63;4.45;;;24.90;58.20;;;;;;4996762;28;20041;-65
2023/07/11 00:15:26;;;;;;;4.60;4.20;;;24.90;58.20;;;;;;4998508;28;20747;-67
2023/07/11 00:17:51;;;;;;;4.20;3.80;;;24.90;58.20;;;;;;4995280;28;20023;-65
2023/07/11 00:20:18;;;;;;;4.70;3.95;;;24.90;58.20;;;;;;4999414;28;20043;-66
2023/07/11 00:22:45;;;;;;;4.32;3.92;;;24.90;58.20;;;;;;4986628;28;20053;-66
2023/07/11 00:25:11;;;;;;;4.78;4.28;;;24.90;58.20;;;;;;5026315;28;20109;-67
2023/07/11 00:27:37;;;;;;;5.38;3.85;;;24.90;58.20;;;;;;4997582;28;20064;-66
2023/07/11 00:30:04;;;;;;;4.38;3.97;;;24.90;58.20;;;;;;5003431;28;20113;-65
2023/07/11 00:32:30;;;;;;;4.13;3.72;;;24.80;58.20;;;;;;4994094;28;20048;-66
2023/07/11 00:34:55;;;;;;;4.13;3.70;;;24.80;58.10;;;;;;5006296;28;20038;-66
2023/07/11 00:37:21;;;;;;;4.55;3.92;;;24.90;58.20;;;;;;4998259;28;20030;-66
2023/07/11 00:39:46;;;;;;;4.75;4.35;;;24.80;58.10;;;;;;4996194;28;20052;-67
2023/07/11 00:42:12;;;;;;;4.25;3.85;;;24.80;58.10;;;;;;5000848;28;20116;-66
2023/07/11 00:45:25;;;;;;;4.65;4.18;;;24.80;58.00;;;;;;4996725;28;20022;-65
2023/07/11 00:47:51;;;;;;;8.48;4.47;;;24.80;58.10;;;;;;4990729;28;20298;-66
2023/07/11 00:50:16;;;;;;;6.35;4.32;;;24.80;58.10;;;;;;4996878;28;20034;-66
2023/07/11 00:52:42;;;;;;;3.83;3.42;;;24.80;58.00;;;;;;4995054;28;20034;-66
2023/07/11 00:55:11;;;;;;;3.58;3.28;;;24.80;58.10;;;;;;4998744;28;20081;-65
2023/07/11 00:57:39;;;;;;;5.30;4.13;;;24.70;57.80;;;;;;4998526;28;20022;-66
2023/07/11 01:00:06;;;;;;;4.55;3.88;;;24.70;57.90;;;;;;4993780;28;20133;-68
2023/07/11 01:02:33;;;;;;;4.55;4.07;;;24.70;57.90;;;;;;4995451;28;20500;-65
2023/07/11 01:05:00;;;;;;;4.35;3.90;;;24.70;57.80;;;;;;4993460;28;20039;-65
2023/07/11 01:07:30;;;;;;;4.95;3.42;;;24.70;57.80;;;;;;4996917;28;20065;-66
2023/07/11 01:09:56;;;;;;;5.22;3.70;;;24.70;57.80;;;;;;4996890;28;20685;-66
2023/07/11 01:12:21;;;;;;;4.10;3.35;;;24.70;57.80;;;;;;4994438;28;20113;-66
2023/07/11 01:14:49;;;;;;;4.35;3.58;;;24.70;57.80;;;;;;4990826;28;20042;-63
2023/07/11 01:17:24;;;;;;;4.80;3.53;;;24.70;57.80;;;;;;4995181;28;20478;-66
2023/07/11 01:19:50;;;;;;;5.10;3.47;;;24.70;57.80;;;;;;4995556;28;20109;-66
2023/07/11 01:22:16;;;;;;;3.30;2.95;;;24.70;57.80;;;;;;4994918;28;20110;-65
2023/07/11 01:24:41;;;;;;;5.10;3.53;;;24.60;57.70;;;;;;5003074;28;20037;-65
2023/07/11 01:27:07;;;;;;;3.45;3.15;;;24.60;57.60;;;;;;5000053;28;20571;-65
2023/07/11 01:29:33;;;;;;;4.88;3.20;;;24.60;57.70;;;;;;5008844;28;20037;-65
2023/07/11 01:31:58;;;;;;;3.80;3.05;;;24.60;57.60;;;;;;5001108;28;20069;-66
2023/07/11 01:34:24;;;;;;;4.35;3.42;;;24.60;58.30;;;;;;5002981;28;20293;-66
2023/07/11 01:36:49;;;;;;;4.13;3.13;;;24.60;57.60;;;;;;4993588;28;20042;-66
2023/07/11 01:39:16;;;;;;;3.60;3.13;;;24.60;57.60;;;;;;5006945;28;20087;-65
2023/07/11 01:41:42;;;;;;;4.57;3.17;;;24.60;57.60;;;;;;4999451;28;20022;-67
2023/07/11 01:44:10;;;;;;;5.03;3.22;;;24.60;57.50;;;;;;4998739;28;20041;-66
2023/07/11 01:46:35;;;;;;;3.33;3.03;;;24.60;57.50;;;;;;4982750;28;20039;-65
2023/07/11 01:49:02;;;;;;;3.58;2.92;;;24.50;57.40;;;;;;4995729;28;20033;-65
2023/07/11 01:51:28;;;;;;;3.72;3.30;;;24.50;57.40;;;;;;5002804;28;20045;-65
2023/07/11 01:53:53;;;;;;;4.43;3.28;;;24.50;57.40;;;;;;5001874;28;20038;-65
2023/07/11 01:56:19;;;;;;;4.35;3.25;;;24.50;57.40;;;;;;5007023;28;20247;-65
2023/07/11 01:58:45;;;;;;;3.85;2.90;;;24.50;57.40;;;;;;4998236;28;20029;-65
2023/07/11 02:01:10;;;;;;;3.63;3.22;;;24.50;57.40;;;;;;5007861;28;20030;-66
2023/07/11 02:03:36;;;;;;;4.30;3.15;;;24.50;58.00;;;;;;4996282;28;20057;-65
2023/07/11 02:06:01;;;;;;;3.05;2.80;;;24.50;57.30;;;;;;4998331;28;20453;-65
2023/07/11 02:08:27;;;;;;;2.70;2.50;;;24.50;57.30;;;;;;5002720;28;20173;-66
2023/07/11 02:10:52;;;;;;;3.42;2.90;;;24.50;57.20;;;;;;4996632;28;20030;-65
2023/07/11 02:13:17;;;;;;;2.60;2.40;;;24.50;57.20;;;;;;5005139;28;20077;-66
2023/07/11 02:15:43;;;;;;;3.38;3.05;;;24.50;57.20;;;;;;4996584;28;20042;-66
2023/07/11 02:18:10;;;;;;;3.38;2.70;;;24.50;57.20;;;;;;4993825;28;20030;-65
2023/07/11 02:20:40;;;;;;;4.22;2.30;;;24.40;57.20;;;;;;4997805;28;20037;-66
2023/07/11 02:23:05;;;;;;;2.83;2.35;;;24.40;57.10;;;;;;4997338;28;20037;-66
2023/07/11 02:25:31;;;;;;;3.28;2.58;;;24.40;57.10;;;;;;4999069;28;20026;-65
2023/07/11 02:27:56;;;;;;;3.22;2.80;;;24.40;57.10;;;;;;4999820;28;20092;-66
2023/07/11 02:30:22;;;;;;;2.75;2.53;;;24.40;57.10;;;;;;4996909;28;20117;-65
2023/07/11 02:32:47;;;;;;;3.15;2.80;;;24.40;57.10;;;;;;5002276;28;20050;-65
2023/07/11 02:35:13;;;;;;;4.28;2.75;;;24.40;57.10;;;;;;4996010;28;20034;-65
2023/07/11 02:37:38;;;;;;;4.45;2.85;;;24.40;57.00;;;;;;5002343;28;20038;-65
2023/07/11 02:40:04;;;;;;;4.57;2.75;;;24.40;57.10;;;;;;4998126;28;20029;-66
2023/07/11 02:42:30;;;;;;;3.13;2.45;;;24.30;56.90;;;;;;4991011;28;20449;-65
2023/07/11 02:44:55;;;;;;;6.20;2.45;;;24.30;56.90;;;;;;4999641;28;20023;-66
2023/07/11 02:47:21;;;;;;;3.38;2.60;;;24.30;56.90;;;;;;4991641;28;20035;-66
2023/07/11 02:49:46;;;;;;;3.33;2.72;;;24.30;57.00;;;;;;4993003;28;20096;-65
2023/07/11 02:52:12;;;;;;;3.08;2.38;;;24.30;56.90;;;;;;4998201;28;20038;-65
2023/07/11 02:54:37;;;;;;;4.32;2.72;;;24.30;56.90;;;;;;5005954;28;20373;-65
2023/07/11 02:57:06;;;;;;;2.60;2.40;;;24.30;56.90;;;;;;5002114;28;20073;-66
2023/07/11 02:59:32;;;;;;;3.42;2.53;;;24.30;56.90;;;;;;5006160;28;20034;-65
2023/07/11 03:01:58;;;;;;;2.55;2.35;;;24.30;56.90;;;;;;4992468;28;20034;-65
2023/07/11 03:04:25;;;;;;;3.05;2.55;;;24.20;56.80;;;;;;4996799;28;20030;-65
2023/07/11 03:06:56;;;;;;;3.28;1.90;;;24.30;56.90;;;;;;5001730;28;20035;-66
2023/07/11 03:09:22;;;;;;;2.78;2.25;;;24.30;56.90;;;;;;4997707;28;20030;-66
2023/07/11 03:11:47;;;;;;;5.15;2.42;;;24.20;56.90;;;;;;4995392;28;20046;-66
2023/07/11 03:14:13;;;;;;;2.65;2.35;;;24.20;56.90;;;;;;4996298;28;20031;-65
2023/07/11 03:16:39;;;;;;;3.20;2.60;;;24.20;56.90;;;;;;5003715;28;20829;-65
2023/07/11 03:19:04;;;;;;;2.83;2.25;;;24.20;56.90;;;;;;5001324;28;20037;-66
2023/07/11 03:21:30;;;;;;;4.15;2.53;;;24.20;56.90;;;;;;4994785;28;20042;-65
2023/07/11 03:23:55;;;;;;;4.07;2.80;;;24.20;57.00;;;;;;4997475;28;20035;-66
2023/07/11 03:26:21;;;;;;;3.60;2.55;;;24.20;56.90;;;;;;4996825;28;20041;-65
2023/07/11 03:28:46;;;;;;;3.10;2.70;;;24.20;57.00;;;;;;4997885;28;20041;-65
2023/07/11 03:31:12;;;;;;;3.90;2.40;;;24.20;57.00;;;;;;4993552;28;20053;-66
2023/07/11 03:33:37;;;;;;;4.03;3.17;;;24.20;56.90;;;;;;5002559;28;20030;-66
2023/07/11 03:36:03;;;;;;;3.75;2.60;;;24.20;57.00;;;;;;5002322;28;20066;-65
2023/07/11 03:38:29;;;;;;;3.53;2.50;;;24.20;57.00;;;;;;4994869;28;20030;-66
2023/07/11 03:40:55;;;;;;;5.45;2.88;;;24.20;57.10;;;;;;5003343;28;20037;-65
2023/07/11 03:43:20;;;;;;;4.35;2.72;;;24.20;57.10;;;;;;4998878;28;20034;-66
2023/07/11 03:45:47;;;;;;;4.93;2.88;;;24.20;57.10;;;;;;5003001;28;20060;-65
2023/07/11 03:48:14;;;;;;;2.85;2.55;;;24.20;57.10;;;;;;4996956;28;20042;-64
2023/07/11 03:50:40;;;;;;;2.90;2.65;;;24.20;57.20;;;;;;4993043;28;20418;-66
2023/07/11 03:53:05;;;;;;;3.72;2.50;;;24.20;57.20;;;;;;4998088;28;20041;-65
2023/07/11 03:55:31;;;;;;;3.15;2.55;;;24.20;57.30;;;;;;4990251;28;20032;-65
2023/07/11 03:57:57;;;;;;;5.45;2.55;;;24.20;57.30;;;;;;4999034;28;20121;-66
2023/07/11 04:00:22;;;;;;;4.32;2.95;;;24.20;57.30;;;;;;5006467;28;20026;-66
2023/07/11 04:02:49;;;;;;;4.40;2.50;;;24.20;58.00;;;;;;4998487;28;20580;-66
2023/07/11 04:05:14;;;;;;;3.58;3.00;;;24.20;57.40;;;;;;5003574;28;20029;-65
2023/07/11 04:07:40;;;;;;;4.50;2.83;;;24.20;57.60;;;;;;4998062;28;20053;-68
2023/07/11 04:10:07;;;;;;;4.30;3.00;;;24.10;57.50;;;;;;5001319;28;20026;-66
2023/07/11 04:12:33;;;;;;;3.55;2.97;;;24.10;57.60;;;;;;4994189;28;20322;-65
2023/07/11 04:14:59;;;;;;;3.78;2.83;;;24.20;57.60;;;;;;4992911;28;20030;-66
2023/07/11 04:17:25;;;;;;;4.90;3.30;;;24.20;57.70;;;;;;5004110;28;20113;-65
2023/07/11 04:19:51;;;;;;;4.10;3.13;;;24.20;57.70;;;;;;4991529;28;20029;-64
2023/07/11 04:22:16;;;;;;;3.30;2.83;;;24.20;57.80;;;;;;5001261;28;20030;-66
2023/07/11 04:24:42;;;;;;;4.20;2.75;;;24.20;57.90;;;;;;4990305;28;20030;-65
2023/07/11 04:27:07;;;;;;;4.18;3.10;;;24.10;57.90;;;;;;4996662;28;20061;-62
2023/07/11 04:29:33;;;;;;;4.55;3.30;;;24.20;58.10;;;;;;4988071;28;20026;-65
2023/07/11 04:31:58;;;;;;;5.38;3.28;;;24.20;58.10;;;;;;4988879;28;20089;-66
2023/07/11 04:34:24;;;;;;;5.20;3.53;;;24.20;58.20;;;;;;4991615;28;20239;-63
2023/07/11 04:36:49;;;;;;;3.75;2.88;;;24.20;58.30;;;;;;4995853;28;20133;-60
2023/07/11 04:39:15;;;;;;;4.10;3.25;;;24.20;58.30;;;;;;4997752;28;20181;-65
2023/07/11 04:41:41;;;;;;;3.53;3.22;;;24.20;58.40;;;;;;4995059;28;20038;-66
2023/07/11 04:44:06;;;;;;;3.47;3.17;;;24.20;58.40;;;;;;5002398;28;20030;-66
2023/07/11 04:46:32;;;;;;;3.30;2.97;;;24.20;58.40;;;;;;4988909;28;20412;-66
2023/07/11 04:48:57;;;;;;;4.60;2.90;;;24.20;58.50;;;;;;4991247;28;20234;-65
2023/07/11 04:51:23;;;;;;;5.72;3.53;;;24.30;58.50;;;;;;4998021;28;20030;-65
2023/07/11 04:53:48;;;;;;;3.88;3.00;;;24.30;58.50;;;;;;4996720;28;20029;-66
2023/07/11 04:56:13;;;;;;;3.95;3.15;;;24.30;58.60;;;;;;4998327;28;20038;-66
2023/07/11 04:58:39;;;;;;;4.57;3.33;;;24.30;58.60;;;;;;4994421;28;20085;-66
2023/07/11 05:01:08;;;;;;;3.72;3.42;;;24.40;58.60;;;;;;4992151;28;20052;-60
2023/07/11 05:03:33;;;;;;;3.83;3.35;;;24.30;58.50;;;;;;4996928;28;20026;-65
2023/07/11 05:05:59;;;;;;;7.45;4.07;;;24.30;58.40;;;;;;4997414;28;20109;-64
2023/07/11 05:08:25;;;;;;;3.35;2.95;;;24.40;58.40;;;;;;4996891;28;20030;-68
2023/07/11 05:11:05;;;;;;;4.35;3.58;;;24.30;58.40;;;;;;4997491;28;20037;-66
2023/07/11 05:13:32;;;;;;;4.05;3.22;;;24.30;58.40;;;;;;5002963;28;20034;-65
2023/07/11 05:16:02;;;;;;;3.53;3.22;;;24.40;58.40;;;;;;4986752;28;20038;-65
2023/07/11 05:18:28;;;;;;;3.70;2.95;;;24.40;58.50;;;;;;4992131;28;20041;-64
2023/07/11 05:20:55;;;;;;;3.20;2.85;;;24.40;58.50;;;;;;4997117;28;20092;-65
2023/07/11 05:23:23;;;;;;;4.32;3.10;;;24.40;58.50;;;;;;5004816;28;20124;-66
2023/07/11 05:25:49;;;;;;;3.97;2.90;;;24.40;58.50;;;;;;4996778;28;20038;-65
2023/07/11 05:28:16;;;;;;;4.15;2.78;;;24.40;58.40;;;;;;5004516;28;20464;-66
2023/07/11 05:30:41;;;;;;;3.38;2.80;;;24.40;58.40;;;;;;5004326;28;20112;-66
2023/07/11 05:33:07;;;;;;;3.72;2.92;;;24.50;58.40;;;;;;5002771;28;20121;-66
2023/07/11 05:35:37;;;;;;;5.55;3.83;;;24.40;58.30;;;;;;4997314;28;20034;-65
2023/07/11 05:38:03;;;;;;;3.08;2.47;;;24.40;58.30;;;;;;5000180;28;20026;-65
2023/07/11 05:40:30;;;;;;;5.20;3.17;;;24.50;58.30;;;;;;4989105;28;20030;-66
2023/07/11 05:42:56;;;;;;;4.78;3.33;;;24.50;58.30;;;;;;4997125;28;20026;-66
2023/07/11 05:45:21;;;;;;;3.95;3.10;;;24.50;58.20;;;;;;5003915;28;20511;-63
2023/07/11 05:47:46;;;;;;;4.88;3.13;;;24.50;58.20;;;;;;4996097;28;20031;-65
2023/07/11 05:50:12;;;;;;;4.05;2.90;;;24.50;58.10;;;;;;4996866;28;20068;-66
2023/07/11 05:52:37;;;;;;;3.85;2.75;;;24.50;58.10;;;;;;4997093;28;20122;-65
2023/07/11 05:55:03;;;;;;;4.20;3.17;;;24.50;58.00;;;;;;4996793;28;20135;-65
2023/07/11 05:57:29;;;;;;;2.75;2.45;;;24.50;58.10;;;;;;4996567;28;20035;-65
2023/07/11 05:59:54;;;;;;;4.13;2.80;;;24.50;58.00;;;;;;4994115;28;20114;-65
2023/07/11 06:02:20;;;;;;;4.63;3.15;;;24.50;58.00;;;;;;4999937;28;20492;-66
2023/07/11 06:04:45;;;;;;;3.75;3.00;;;24.50;58.00;;;;;;4998020;28;20041;-66
2023/07/11 06:07:11;;;;;;;3.03;2.55;;;24.50;58.00;;;;;;5007828;28;20038;-63
2023/07/11 06:09:36;;;;;;;3.97;2.70;;;24.50;58.00;;;;;;5007127;28;20504;-65
2023/07/11 06:12:02;;;;;;;3.63;2.63;;;24.50;58.00;;;;;;5000438;28;20058;-65
2023/07/11 06:14:27;;;;;;;3.25;2.60;;;24.50;58.00;;;;;;5007478;28;20480;-64
2023/07/11 06:16:53;;;;;;;3.70;2.97;;;24.50;58.00;;;;;;4996938;28;20041;-65
2023/07/11 06:19:18;;;;;;;3.60;2.70;;;24.50;58.00;;;;;;4995717;28;20404;-65
2023/07/11 06:21:44;;;;;;;3.65;2.47;;;24.60;58.00;;;;;;4991819;28;20037;-65
2023/07/11 06:24:10;;;;;;;5.07;3.10;;;24.50;58.00;;;;;;5007428;28;20037;-62
2023/07/11 06:26:35;;;;;;;4.13;3.17;;;24.50;58.00;;;;;;4999337;28;20026;-65
2023/07/11 06:29:01;;;;;;;3.67;2.70;;;24.50;58.00;;;;;;5000298;28;20449;-62
2023/07/11 06:31:27;;;;;;;4.80;3.13;;;24.50;58.10;;;;;;5007343;28;20026;-63
2023/07/11 06:33:52;;;;;;;3.38;2.97;;;24.50;58.10;;;;;;5021756;28;20088;-65
2023/07/11 06:36:18;;;;;;;5.18;3.10;;;24.50;58.00;;;;;;5000504;28;20264;-63
2023/07/11 06:38:43;;;;;;;3.80;3.08;;;24.50;58.10;;;;;;5000195;28;20022;-66
2023/07/11 06:41:09;;;;;;;3.20;2.70;;;24.50;58.00;;;;;;5003828;28;20448;-65
2023/07/11 06:43:34;;;;;;;3.28;2.65;;;24.50;58.10;;;;;;5003304;28;20065;-65
2023/07/11 06:46:00;;;;;;;4.03;3.25;;;24.50;58.10;;;;;;5007209;28;20033;-66
2023/07/11 06:48:28;;;;;;;3.70;3.15;;;24.50;58.20;;;;;;5008026;28;20109;-65
2023/07/11 06:50:59;;;;;;;3.15;2.50;;;24.60;58.10;;;;;;5005669;28;20022;-64
2023/07/11 06:53:27;;;;;;;7.45;3.15;;;24.60;58.00;;;;;;5001211;28;20033;-66
2023/07/11 06:55:54;;;;;;;5.38;3.33;;;24.60;58.10;;;;;;5001269;28;20029;-65
2023/07/11 06:58:20;;;;;;;4.72;3.47;;;24.50;58.00;;;;;;5008903;28;20482;-61
2023/07/11 07:01:11;;;;;;;6.63;3.28;;;24.50;57.70;;;;;;4996167;28;20034;-66
2023/07/11 07:03:36;;;;;;;4.63;3.53;;;24.50;57.50;;;;;;5007446;28;20018;-65
2023/07/11 07:06:05;;;;;;;4.72;3.22;;;24.50;57.20;;;;;;5017079;28;20041;-65
2023/07/11 07:08:31;;;;;;;4.32;2.65;;;24.60;57.10;;;;;;4991770;28;20034;-66
2023/07/11 07:10:57;;;;;;;7.05;3.42;;;24.60;57.10;;;;;;5002589;28;20034;-65
2023/07/11 07:13:24;;;;;;;4.60;3.00;;;24.60;57.20;;;;;;5002337;28;20033;-66
2023/07/11 07:15:52;;;;;;;3.92;3.10;;;24.60;57.30;;;;;;4997073;28;20057;-66
2023/07/11 07:18:17;;;;;;;5.55;3.50;;;24.60;57.20;;;;;;5007203;28;20025;-65
2023/07/11 07:20:44;;;;;;;4.22;3.78;;;24.60;57.20;;;;;;5004014;28;20022;-65
2023/07/11 07:23:10;;;;;;;5.43;3.05;;;24.60;57.20;;;;;;4988604;28;20031;-65
2023/07/11 07:25:36;;;;;;;7.68;3.50;;;24.60;57.10;;;;;;5003551;28;20030;-66
2023/07/11 07:28:02;;;;;;;4.32;3.08;;;24.60;57.00;;;;;;5004314;28;20041;-65
2023/07/11 07:30:28;;;;;;;4.25;3.38;;;24.50;57.00;;;;;;5005487;28;20488;-65
2023/07/11 07:32:53;;;;;;;4.57;3.45;;;24.60;57.10;;;;;;4995878;28;20037;-66
2023/07/11 07:35:19;;;;;;;4.10;3.42;;;24.60;57.10;;;;;;4992799;28;20531;-65
2023/07/11 07:37:45;;;;;;;3.58;2.75;;;24.60;57.00;;;;;;5002237;28;20029;-65
2023/07/11 07:40:11;;;;;;;3.63;3.33;;;24.60;56.90;;;;;;5007067;28;20096;-65
2023/07/11 07:42:36;;;;;;;2.90;2.60;;;24.60;57.00;;;;;;5005024;28;20018;-64
2023/07/11 07:45:02;;;;;;;3.67;3.05;;;24.60;57.00;;;;;;5003929;28;20396;-65
2023/07/11 07:47:27;;;;;;;3.95;2.75;;;24.60;57.00;;;;;;4996996;28;20048;-63
2023/07/11 07:49:55;;;;;;;5.07;3.95;;;24.60;56.90;;;;;;5002722;28;20489;-65
2023/07/11 07:52:20;;;;;;;4.30;3.22;;;24.60;56.90;;;;;;4991856;28;20034;-64
2023/07/11 07:54:46;;;;;;;4.70;3.63;;;24.60;57.00;;;;;;4999958;28;20037;-65
2023/07/11 07:57:11;;;;;;;4.28;3.22;;;24.70;57.00;;;;;;5000301;28;20029;-64
2023/07/11 07:59:36;;;;;;;7.32;2.80;;;24.60;56.90;;;;;;5001064;28;20062;-65
2023/07/11 08:02:02;;;;;;;4.00;3.40;;;24.60;56.90;;;;;;5002393;28;20064;-65
2023/07/11 08:04:30;;;;;;;4.18;3.50;;;24.60;56.90;;;;;;5005614;28;20041;-65
2023/07/11 08:06:55;;;;;;;4.20;3.20;;;24.70;56.50;;;;;;4996061;28;20114;-65
2023/07/11 08:09:21;;;;;;;4.50;3.60;;;24.70;56.50;;;;;;4996957;28;20026;-65
2023/07/11 08:11:46;;;;;;;3.53;3.20;;;24.70;56.60;;;;;;4990923;28;20034;-65
2023/07/11 08:14:12;;;;;;;4.55;3.20;;;24.70;56.50;;;;;;4995017;28;20075;-65
2023/07/11 08:16:39;;;;;;;4.97;3.15;;;24.70;56.60;;;;;;4989837;28;20505;-65
2023/07/11 08:19:05;;;;;;;4.38;3.22;;;24.70;56.60;;;;;;4994909;28;20147;-65
2023/07/11 08:21:31;;;;;;;3.67;3.10;;;24.70;56.50;;;;;;4994598;28;20061;-65
2023/07/11 08:23:57;;;;;;;4.13;3.05;;;24.70;56.50;;;;;;5003491;28;20053;-65
2023/07/11 08:26:23;;;;;;;3.97;3.35;;;24.70;56.50;;;;;;5005717;28;20057;-65
2023/07/11 08:28:52;;;;;;;3.63;3.33;;;24.70;56.50;;;;;;4994109;28;20038;-65
2023/07/11 08:31:18;;;;;;;5.32;3.00;;;24.70;56.50;;;;;;4998147;28;20502;-66
2023/07/11 08:33:43;;;;;;;3.55;3.17;;;24.70;56.50;;;;;;5002020;28;20121;-63
2023/07/11 08:36:09;;;;;;;5.10;3.15;;;24.70;56.50;;;;;;4997575;28;20038;-65
2023/07/11 08:38:35;;;;;;;5.22;2.83;;;24.70;56.60;;;;;;4996921;28;20034;-65
2023/07/11 08:41:19;;;;;;;5.25;3.17;;;24.70;56.50;;;;;;4995583;28;20327;-65
2023/07/11 08:43:46;;;;;;;3.92;3.40;;;24.70;56.50;;;;;;4984716;28;20034;-63
2023/07/11 08:46:14;;;;;;;3.90;3.10;;;24.70;56.60;;;;;;5000895;28;20030;-64
2023/07/11 08:48:50;;;;;;;6.10;3.28;;;24.70;56.60;;;;;;5003043;28;20038;-65
2023/07/11 08:51:38;;;;;;;4.95;3.85;;;24.70;56.50;;;;;;4997618;28;20113;-65
2023/07/11 08:54:06;;;;;;;4.93;3.50;;;24.80;56.40;;;;;;4992100;28;20030;-66
2023/07/11 08:56:39;;;;;;;3.53;2.95;;;24.70;56.40;;;;;;4999477;28;20332;-65
2023/07/11 08:59:08;;;;;;;3.53;3.10;;;24.80;56.40;;;;;;4996126;28;20111;-66
2023/07/11 09:01:59;;;;;;;4.88;3.53;;;24.70;56.50;;;;;;4994252;28;20084;-66
2023/07/11 09:04:26;;;;;;;4.88;3.70;;;24.70;56.50;;;;;;4991792;28;20088;-65
2023/07/11 09:06:55;;;;;;;5.53;3.45;;;24.80;56.50;;;;;;4999287;28;20411;-65
2023/07/11 09:09:22;;;;;;;3.47;3.17;;;24.80;56.50;;;;;;5000871;28;20041;-65
2023/07/11 09:12:11;;;;;;;4.35;3.25;;;24.80;56.50;;;;;;5000836;28;20034;-64
2023/07/11 09:14:53;;;;;;;4.70;3.40;;;24.80;56.50;;;;;;4994612;28;20109;-64
2023/07/11 09:17:32;;;;;;;4.40;3.20;;;24.80;57.10;;;;;;4998805;28;20030;-67
2023/07/11 09:20:26;;;;;;;5.50;3.78;;;24.80;56.50;;;;;;4998263;28;20041;-67
2023/07/11 09:23:09;;;;;;;4.75;3.33;;;24.70;56.50;;;;;;4997975;28;20022;-66
2023/07/11 09:25:42;;;;;;;4.22;3.45;;;24.80;56.50;;;;;;5003114;28;20037;-67
2023/07/11 09:28:18;;;;;;;4.82;3.40;;;24.80;56.40;;;;;;5002980;28;20030;-67
2023/07/11 09:30:51;;;;;;;5.30;4.22;;;24.80;56.50;;;;;;5002861;28;20092;-67
2023/07/11 09:33:33;;;;;;;5.07;3.30;;;24.80;56.50;;;;;;4992918;28;20469;-66
2023/07/11 09:36:01;;;;;;;4.53;3.70;;;24.80;56.40;;;;;;4999471;28;20069;-65
2023/07/11 09:38:44;;;;;;;3.70;3.22;;;24.80;56.50;;;;;;5005513;28;20100;-64
2023/07/11 09:41:25;;;;;;;3.88;3.33;;;24.80;56.50;;;;;;5002140;28;20076;-66
2023/07/11 09:43:50;;;;;;;7.03;4.00;;;24.80;56.40;;;;;;5002239;28;20034;-65
2023/07/11 09:46:21;;;;;;;5.35;4.10;;;24.80;56.40;;;;;;5002410;28;20378;-66
2023/07/11 09:48:50;;;;;;;5.32;4.28;;;24.90;56.50;;;;;;4993307;28;20468;-66
2023/07/11 09:51:55;;;;;;;6.75;4.43;;;24.80;56.40;;;;;;4999930;28;20562;-66
2023/07/11 09:54:24;;;;;;;4.97;4.22;;;24.90;56.50;;;;;;4999314;28;20404;-67
2023/07/11 09:56:50;;;;;;;4.85;3.90;;;24.90;56.50;;;;;;5001065;28;20096;-66
2023/07/11 09:59:17;;;;;;;4.43;4.00;;;24.90;56.50;;;;;;4998623;28;20038;-66
2023/07/11 10:01:43;;;;;;;5.60;4.30;;;24.90;56.50;;;;;;5001348;28;20026;-66
2023/07/11 10:04:15;;;;;;;4.40;4.00;;;24.90;56.50;;;;;;4984978;28;20416;-66
2023/07/11 10:06:44;;;;;;;4.07;3.70;;;24.90;56.50;;;;;;4999372;28;20516;-67
2023/07/11 10:09:17;;;;;;;6.57;4.40;;;24.90;57.10;;;;;;5000300;28;20041;-66
2023/07/11 10:11:50;;;;;;;5.15;4.68;;;24.90;56.50;;;;;;4987127;28;20595;-66
2023/07/11 10:14:18;;;;;;;6.57;5.30;;;24.90;56.50;;;;;;4990654;28;20084;-66
2023/07/11 10:16:46;;;;;;;6.07;4.65;;;24.90;56.50;;;;;;4992913;28;20145;-67
2023/07/11 10:19:16;;;;;;;6.65;5.47;;;24.90;56.50;;;;;;5000967;28;20114;-66
2023/07/11 10:21:47;;;;;;;8.88;5.60;;;24.90;56.50;;;;;;5003011;28;20025;-67
2023/07/11 10:24:22;;;;;;;6.95;4.55;;;25.00;56.60;;;;;;5001683;28;20401;-67
2023/07/11 10:26:53;;;;;;;6.97;6.28;;;24.90;56.50;;;;;;4992969;28;20030;-67
2023/07/11 10:29:22;;;;;;;8.85;6.90;;;24.90;56.50;;;;;;5000737;28;20567;-66
2023/07/11 10:31:58;;;;;;;8.80;7.38;;;24.90;56.50;;;;;;4996090;28;20046;-66
2023/07/11 10:34:29;;;;;;;7.85;7.07;;;25.00;56.40;;;;;;4995492;28;20054;-66
2023/07/11 10:37:04;;;;;;;9.10;7.82;;;24.90;56.40;;;;;;4996323;28;20130;-66
2023/07/11 10:39:47;;;;;;;8.95;6.97;;;25.00;56.40;;;;;;4989114;28;20113;-67
2023/07/11 10:42:24;;;;;;;7.60;6.78;;;25.00;56.40;;;;;;4995395;28;20505;-66
2023/07/11 10:45:00;;;;;;;9.05;7.50;;;25.00;56.50;;;;;;4995233;28;20522;-66
2023/07/11 10:47:32;;;;;;;10.02;7.55;;;25.00;56.50;;;;;;4995933;28;20038;-67
2023/07/11 10:50:00;;;;;;;15.05;7.30;;;25.00;56.50;;;;;;5005719;28;20435;-67
2023/07/11 10:52:27;;;;;;;10.65;7.10;;;25.00;56.50;;;;;;4998923;28;20032;-66
2023/07/11 10:55:15;;;;;;;9.07;7.53;;;25.00;56.40;;;;;;4998091;28;20169;-67
2023/07/11 10:57:45;;;;;;;9.13;7.97;;;25.00;56.60;;;;;;4994557;28;20026;-67
2023/07/11 11:00:16;;;;;;;8.65;7.00;;;25.00;56.50;;;;;;5001589;28;20034;-67
2023/07/11 11:03:13;;;;;;;8.55;7.15;;;25.00;56.50;;;;;;4994255;28;20160;-66
2023/07/11 11:06:00;;;;;;;7.97;7.03;;;25.00;56.50;;;;;;4996174;28;20034;-67
2023/07/11 11:08:50;;;;;;;8.02;6.82;;;25.00;56.60;;;;;;4994949;28;20049;-65
2023/07/11 11:11:40;;;;;;;7.30;6.57;;;25.00;56.70;;;;;;4999294;28;20505;-66
2023/07/11 11:14:22;;;;;;;11.13;8.40;;;25.00;56.70;;;;;;5000395;28;20117;-67
2023/07/11 11:17:04;;;;;;;9.80;8.43;;;25.00;56.60;;;;;;4992804;28;20126;-67
2023/07/11 11:19:45;;;;;;;9.63;8.32;;;25.10;56.60;;;;;;5021797;28;20030;-68
2023/07/11 11:22:36;;;;;;;10.10;8.65;;;25.10;56.60;;;;;;4997396;28;20065;-67
2023/07/11 11:25:09;;;;;;;9.18;8.27;;;25.10;56.60;;;;;;4996802;28;20651;-65
2023/07/11 11:27:56;;;;;;;10.52;7.45;;;25.10;56.70;;;;;;4996346;28;20041;-65
2023/07/11 11:30:48;;;;;;;9.82;8.38;;;25.10;56.60;;;;;;4995284;28;20045;-66
2023/07/11 11:33:29;;;;;;;9.70;8.32;;;25.10;56.80;;;;;;4995297;28;20480;-67
2023/07/11 11:36:25;;;;;;;11.23;9.68;;;25.10;56.80;;;;;;4998339;28;20026;-66
2023/07/11 11:39:30;;;;;;;9.52;8.50;;;25.10;56.80;;;;;;4996800;28;20053;-67
2023/07/11 11:41:59;;;;;;;11.77;9.63;;;25.10;56.90;;;;;;4995303;28;20030;-67
2023/07/11 11:44:43;;;;;;;10.88;9.77;;;25.20;56.90;;;;;;4989936;28;20032;-66
2023/07/11 11:47:09;;;;;;;9.55;8.55;;;25.20;56.80;;;;;;4993785;28;20104;-67
2023/07/11 11:49:36;;;;;;;11.45;10.02;;;25.20;56.90;;;;;;4994888;28;20250;-66
2023/07/11 11:52:02;;;;;;;10.82;9.40;;;25.20;56.80;;;;;;4997012;28;20029;-66
2023/07/11 11:54:41;;;;;;;11.02;9.80;;;25.20;56.90;;;;;;5001159;28;20116;-66
2023/07/11 11:57:17;;;;;;;11.45;9.93;;;25.30;56.80;;;;;;5005893;28;20034;-66
2023/07/11 11:59:44;;;;;;;11.23;9.50;;;25.30;56.80;;;;;;4997337;28;20524;-66
2023/07/11 12:02:27;;;;;;;13.40;9.95;;;25.30;56.80;;;;;;4996139;28;20034;-67
2023/07/11 12:05:16;;;;;;;11.80;9.95;;;25.30;56.80;;;;;;5006661;28;20568;-66
2023/07/11 12:07:44;;;;;;;11.23;9.98;;;25.30;56.70;;;;;;4997460;28;20038;-66
2023/07/11 12:10:16;;;;;;;13.93;11.15;;;25.30;56.60;;;;;;4997460;28;20057;-66
2023/07/11 12:12:41;;;;;;;12.27;10.43;;;25.30;56.70;;;;;;4998688;28;20032;-66
2023/07/11 12:15:12;;;;;;;11.27;10.07;;;25.30;56.50;;;;;;5004282;28;20038;-66
2023/07/11 12:17:41;;;;;;;11.75;10.13;;;25.30;56.50;;;;;;4996657;28;20034;-66
2023/07/11 12:20:06;;;;;;;13.93;10.75;;;25.30;56.60;;;;;;4991324;28;20038;-65
2023/07/11 12:22:38;;;;;;;12.25;10.95;;;25.30;56.60;;;;;;4997828;28;20137;-65
2023/07/11 12:25:06;;;;;;;11.90;9.43;;;25.30;56.60;;;;;;4996088;28;20628;-66
2023/07/11 12:27:34;;;;;;;11.88;10.32;;;25.30;56.60;;;;;;4995482;28;20041;-67
2023/07/11 12:30:22;;;;;;;13.18;10.73;;;25.30;56.50;;;;;;4989903;28;20026;-67
2023/07/11 12:32:50;;;;;;;13.73;11.38;;;25.30;56.30;;;;;;4995078;28;20105;-67
2023/07/11 12:35:24;;;;;;;13.57;11.20;;;25.40;56.30;;;;;;4992449;28;20493;-67
2023/07/11 12:38:06;;;;;;;14.52;11.02;;;25.40;56.30;;;;;;4992518;28;20030;-67
2023/07/11 12:40:53;;;;;;;15.05;12.95;;;25.40;56.30;;;;;;4994970;28;20052;-66
2023/07/11 12:43:23;;;;;;;13.98;12.48;;;25.40;56.30;;;;;;4999044;28;20255;-66
2023/07/11 12:45:54;;;;;;;15.18;13.57;;;25.40;56.20;;;;;;4997889;28;20030;-66
2023/07/11 12:48:26;;;;;;;14.75;12.70;;;25.40;56.00;;;;;;4992725;28;20027;-66
2023/07/11 12:50:58;;;;;;;15.23;12.85;;;25.40;56.00;;;;;;4994898;28;20054;-67
2023/07/11 12:53:24;;;;;;;17.02;13.18;;;25.40;55.80;;;;;;5001318;28;20109;-66
2023/07/11 12:55:52;;;;;;;13.50;12.00;;;25.40;55.90;;;;;;4992186;28;20133;-67